Time;durP1;ratioP1;P1;durP2;ratioP2;P2;SDS_P1;SDS_P2;PMS_P1;PMS_P2;Temp;Humidity;BMP_temperature;BMP_pressure;BME280_temperature;BME280_humidity;BME280_pressure;Samples;Min_cycle;Max_cycle;Signal;HPM_P1;HPM_P2
2022/09/23 00:00:23;;;;;;;9.20;2.40;;;;;;;12.40;72.04;101858.75;5050844;27;97822;-31
2022/09/23 00:02:50;;;;;;;7.03;1.98;;;;;;;12.39;72.25;101850.69;5049470;27;97930;-30
2022/09/23 00:05:16;;;;;;;4.53;2.33;;;;;;;12.39;71.80;101856.13;5050695;27;98018;-30
2022/09/23 00:07:41;;;;;;;3.00;1.95;;;;;;;12.33;72.66;101852.78;5051263;27;96481;-31
2022/09/23 00:10:07;;;;;;;2.60;1.85;;;;;;;12.31;72.39;101843.81;5051448;27;96749;-32
2022/09/23 00:12:33;;;;;;;3.65;1.98;;;;;;;12.29;72.29;101853.88;5050366;27;99265;-30
2022/09/23 00:14:58;;;;;;;4.32;2.38;;;;;;;12.26;72.21;101850.47;5051080;27;97278;-31
2022/09/23 00:17:24;;;;;;;4.18;2.22;;;;;;;12.24;72.32;101847.81;5050960;27;96633;-30
2022/09/23 00:19:49;;;;;;;7.25;2.15;;;;;;;12.21;72.18;101845.28;5009691;27;1175596;-32
2022/09/23 00:22:15;;;;;;;4.28;2.38;;;;;;;12.18;71.91;101844.53;5051913;27;98835;-31
2022/09/23 00:24:41;;;;;;;4.68;2.05;;;;;;;12.17;72.33;101849.09;5033664;27;100814;-32
2022/09/23 00:27:06;;;;;;;5.30;2.15;;;;;;;12.16;72.51;101843.78;5051681;27;96553;-30
2022/09/23 00:29:32;;;;;;;3.92;2.03;;;;;;;12.12;72.48;101837.59;5051667;27;96867;-32
2022/09/23 00:31:57;;;;;;;3.42;2.05;;;;;;;12.09;72.81;101844.06;5052029;27;97475;-30
2022/09/23 00:34:22;;;;;;;4.22;2.13;;;;;;;12.08;72.70;101847.75;5052093;27;97888;-30
2022/09/23 00:36:48;;;;;;;4.20;2.30;;;;;;;12.04;72.37;101848.88;5052253;27;96610;-32
2022/09/23 00:39:13;;;;;;;2.95;2.05;;;;;;;12.05;72.69;101847.03;5052241;27;96982;-31
2022/09/23 00:41:38;;;;;;;3.80;2.25;;;;;;;12.01;72.39;101843.59;5052017;27;98061;-30
2022/09/23 00:44:58;;;;;;;4.45;1.92;;;;;;;12.01;73.15;101842.69;5051832;27;98975;-31
2022/09/23 00:47:32;;;;;;;5.20;1.85;;;;;;;11.97;72.58;101835.69;4950299;28;96800;-32
2022/09/23 00:50:29;;;;;;;4.28;1.80;;;;;;;11.97;73.06;101827.56;5018034;27;97072;-32
2022/09/23 00:52:58;;;;;;;3.75;2.20;;;;;;;11.94;72.83;101836.72;5033029;27;101334;-30
2022/09/23 00:55:45;;;;;;;5.43;2.50;;;;;;;11.93;73.48;101825.94;5033387;27;100951;-31
2022/09/23 00:58:20;;;;;;;4.28;2.03;;;;;;;11.90;73.22;101829.69;5033495;27;96653;-33
2022/09/23 01:00:46;;;;;;;3.85;2.25;;;;;;;11.89;72.86;101828.81;5033273;27;96817;-31
2022/09/23 01:03:12;;;;;;;3.85;2.17;;;;;;;11.87;72.92;101833.44;5051787;27;98059;-30
2022/09/23 01:05:38;;;;;;;3.72;2.20;;;;;;;11.86;72.37;101833.47;5033177;27;100872;-32
2022/09/23 01:08:07;;;;;;;4.40;2.10;;;;;;;11.84;72.90;101827.25;5033249;27;96612;-31
2022/09/23 01:11:08;;;;;;;3.00;1.77;;;;;;;11.84;73.04;101821.81;5033681;27;96862;-30
2022/09/23 01:14:05;;;;;;;3.22;2.00;;;;;;;11.84;73.56;101828.13;5034018;27;100555;-31
2022/09/23 01:16:47;;;;;;;3.53;1.65;;;;;;;11.82;73.34;101831.88;5055009;27;98364;-31
2022/09/23 01:19:43;;;;;;;3.38;2.22;;;;;;;11.83;73.13;101829.09;5054280;27;96632;-31
2022/09/23 01:22:31;;;;;;;3.70;1.88;;;;;;;11.83;72.68;101825.50;5055221;27;96539;-30
2022/09/23 01:25:14;;;;;;;3.72;2.10;;;;;;;11.83;72.78;101822.78;5036161;27;101088;-30
2022/09/23 01:28:11;;;;;;;3.20;2.05;;;;;;;11.83;73.22;101826.38;5036128;27;101397;-30
2022/09/23 01:30:43;;;;;;;3.70;2.22;;;;;;;11.80;72.75;101828.38;5054496;27;96874;-33
2022/09/23 01:33:30;;;;;;;4.38;2.03;;;;;;;11.82;72.92;101816.50;5036667;27;96580;-32
2022/09/23 01:36:20;;;;;;;3.45;1.95;;;;;;;11.80;73.08;101821.13;5036286;27;101212;-32
2022/09/23 01:39:11;;;;;;;4.55;2.17;;;;;;;11.79;72.75;101813.91;5036496;27;100824;-30
2022/09/23 01:41:44;;;;;;;3.22;1.75;;;;;;;11.77;72.51;101802.25;5036208;27;96816;-33
2022/09/23 01:44:33;;;;;;;4.18;1.80;;;;;;;11.78;72.40;101806.72;5036281;27;96807;-30
2022/09/23 01:47:09;;;;;;;2.30;1.75;;;;;;;11.80;71.63;101801.25;5054142;27;97922;-30
2022/09/23 01:49:44;;;;;;;2.83;1.92;;;;;;;11.80;71.34;101798.53;5054545;27;97701;-31
2022/09/23 01:52:24;;;;;;;3.42;1.95;;;;;;;11.81;71.46;101802.97;5036220;27;96674;-30
2022/09/23 01:55:16;;;;;;;3.10;1.75;;;;;;;11.83;71.36;101804.66;5035980;27;96899;-30
2022/09/23 01:57:56;;;;;;;3.92;1.92;;;;;;;11.81;71.52;101794.84;5054220;27;100667;-31
2022/09/23 02:00:23;;;;;;;3.67;1.83;;;;;;;11.80;71.08;101787.66;5054289;27;97902;-31
2022/09/23 02:02:56;;;;;;;4.35;2.10;;;;;;;11.83;71.05;101790.22;5035921;27;96649;-31
2022/09/23 02:05:37;;;;;;;3.25;1.70;;;;;;;11.80;71.43;101791.25;5054793;27;96636;-30
2022/09/23 02:08:10;;;;;;;5.10;2.28;;;;;;;11.81;71.38;101778.56;5035725;27;100775;-31
2022/09/23 02:10:43;;;;;;;2.70;1.77;;;;;;;11.80;70.87;101766.81;5035884;27;98874;-30
2022/09/23 02:13:16;;;;;;;2.95;1.85;;;;;;;11.82;70.49;101785.72;5035196;27;96739;-31
2022/09/23 02:15:49;;;;;;;4.68;2.15;;;;;;;11.77;70.56;101775.09;5035686;27;96856;-31
2022/09/23 02:18:25;;;;;;;3.33;1.95;;;;;;;11.80;70.52;101777.69;5035648;27;101388;-30
2022/09/23 02:20:55;;;;;;;3.60;2.13;;;;;;;11.79;70.71;101770.47;5035088;27;100889;-30
2022/09/23 02:23:28;;;;;;;2.83;1.88;;;;;;;11.79;70.77;101758.75;5035688;27;96629;-31
2022/09/23 02:26:07;;;;;;;3.28;1.92;;;;;;;11.79;70.56;101767.75;5034586;27;97108;-31
2022/09/23 02:28:36;;;;;;;6.38;2.40;;;;;;;11.81;70.69;101768.56;5035238;27;100942;-30
2022/09/23 02:31:29;;;;;;;4.07;2.33;;;;;;;11.80;70.54;101768.66;5054051;27;98113;-30
2022/09/23 02:33:59;;;;;;;;;;;;;;;11.80;70.23;101768.66;5054149;27;96706;-30
2022/09/23 02:36:28;;;;;;;6.18;2.00;;;;;;;11.77;70.19;101755.22;5035687;27;97389;-30
2022/09/23 02:38:57;;;;;;;6.25;2.78;;;;;;;11.80;70.04;101769.53;5034755;27;100666;-30
2022/09/23 02:41:36;;;;;;;7.82;2.55;;;;;;;11.82;70.81;101766.72;5035119;27;100944;-32
2022/09/23 02:44:07;;;;;;;6.35;2.38;;;;;;;11.83;70.57;101760.34;5053785;27;96546;-31
2022/09/23 02:46:34;;;;;;;5.60;2.58;;;;;;;11.79;70.80;101754.19;5053768;27;96575;-30
2022/09/23 02:49:10;;;;;;;8.13;2.50;;;;;;;11.82;70.97;101758.56;5034935;27;101610;-30
2022/09/23 02:51:37;;;;;;;5.78;2.50;;;;;;;11.81;71.04;101752.28;5035073;27;99034;-30
2022/09/23 02:54:05;;;;;;;5.53;2.00;;;;;;;11.79;71.14;101748.75;5035084;27;96716;-34
2022/09/23 02:56:32;;;;;;;4.82;2.35;;;;;;;11.79;71.11;101743.34;5035459;27;96518;-31
2022/09/23 02:58:57;;;;;;;5.32;2.40;;;;;;;11.76;70.73;101737.19;5035199;27;101162;-31
2022/09/23 03:01:55;;;;;;;4.72;2.03;;;;;;;11.77;70.66;101739.81;5053445;27;97287;-30
2022/09/23 03:04:28;;;;;;;3.90;2.35;;;;;;;11.77;70.07;101733.50;5052957;27;96569;-30
2022/09/23 03:07:13;;;;;;;5.28;2.45;;;;;;;11.79;70.45;101737.91;5034842;27;97070;-30
2022/09/23 03:10:00;;;;;;;5.82;2.15;;;;;;;11.82;70.78;101732.34;5034817;27;101505;-31
2022/09/23 03:12:39;;;;;;;9.15;2.42;;;;;;;11.81;70.87;101743.25;5034532;27;100905;-31
2022/09/23 03:15:17;;;;;;;3.50;1.90;;;;;;;11.82;70.84;101743.19;5034850;27;96684;-30
2022/09/23 03:17:55;;;;;;;4.20;2.28;;;;;;;11.82;70.73;101735.06;5034768;27;96798;-30
2022/09/23 03:20:37;;;;;;;4.00;2.33;;;;;;;11.83;70.96;101730.50;5033892;27;100871;-31
2022/09/23 03:23:06;;;;;;;4.90;1.92;;;;;;;11.79;71.08;101729.75;5034932;27;100948;-30
2022/09/23 03:25:38;;;;;;;3.85;2.20;;;;;;;11.80;71.00;101728.81;5053029;27;96602;-33
2022/09/23 03:28:04;;;;;;;4.57;2.40;;;;;;;11.76;70.92;101720.91;5053144;27;96507;-30
2022/09/23 03:30:34;;;;;;;4.72;2.55;;;;;;;11.76;71.49;101729.06;5052289;27;97366;-30
2022/09/23 03:33:03;;;;;;;5.82;2.03;;;;;;;11.76;71.40;101732.66;5034324;27;100931;-30
2022/09/23 03:35:31;;;;;;;3.17;1.95;;;;;;;11.76;71.47;101734.50;5034622;27;96599;-31
2022/09/23 03:38:15;;;;;;;5.82;2.13;;;;;;;11.72;71.67;101736.47;5034346;27;96792;-31
2022/09/23 03:40:46;;;;;;;5.50;2.60;;;;;;;11.72;71.35;101730.16;5052813;27;97991;-31
2022/09/23 03:43:12;;;;;;;4.68;2.20;;;;;;;11.73;71.55;101732.81;5034154;27;101329;-31
2022/09/23 03:45:40;;;;;;;3.83;2.22;;;;;;;11.73;71.27;101718.34;5034325;27;96661;-31
2022/09/23 03:48:06;;;;;;;4.85;2.38;;;;;;;11.72;71.50;101720.19;5034640;27;96783;-31
2022/09/23 03:50:34;;;;;;;2.85;1.63;;;;;;;11.73;72.04;101730.09;5052731;27;98463;-31
2022/09/23 03:53:00;;;;;;;4.93;2.45;;;;;;;11.71;71.79;101729.28;5034180;27;100778;-31
2022/09/23 03:55:25;;;;;;;4.88;2.05;;;;;;;11.70;72.18;101716.66;5033647;27;97207;-31
2022/09/23 03:57:51;;;;;;;4.47;2.28;;;;;;;11.69;71.32;101709.50;5033882;27;96859;-31
2022/09/23 04:00:16;;;;;;;3.30;2.08;;;;;;;11.66;71.04;101701.53;5052047;27;99414;-30
2022/09/23 04:02:43;;;;;;;3.30;2.08;;;;;;;11.71;71.49;101701.28;5052439;27;97803;-30
2022/09/23 04:05:09;;;;;;;3.78;2.38;;;;;;;11.75;71.14;101700.13;5034008;27;96601;-31
2022/09/23 04:07:35;;;;;;;3.13;2.20;;;;;;;11.74;71.28;101698.41;5052441;27;96781;-31
2022/09/23 04:10:00;;;;;;;3.10;1.85;;;;;;;11.73;71.42;101696.63;5052130;27;99243;-31
2022/09/23 04:12:25;;;;;;;3.50;1.65;;;;;;;11.73;71.41;101694.81;5052277;27;97920;-30
2022/09/23 04:14:51;;;;;;;2.92;1.98;;;;;;;11.71;71.97;101680.44;5052411;27;96445;-33
2022/09/23 04:17:16;;;;;;;3.75;2.08;;;;;;;11.74;71.60;101688.41;5052405;27;98078;-31
2022/09/23 04:19:42;;;;;;;3.05;1.95;;;;;;;11.75;71.85;101678.44;5051130;27;97841;-30
2022/09/23 04:22:08;;;;;;;4.43;2.15;;;;;;;11.76;71.70;101685.63;5052118;27;98417;-30
2022/09/23 04:24:33;;;;;;;7.72;2.60;;;;;;;11.78;71.75;101687.31;5052491;27;96594;-30
2022/09/23 04:26:59;;;;;;;3.92;2.10;;;;;;;11.78;71.57;101687.31;5052397;27;96793;-31
2022/09/23 04:29:25;;;;;;;3.65;2.08;;;;;;;11.77;71.56;101682.81;5052071;27;97986;-31
2022/09/23 04:31:51;;;;;;;2.58;1.83;;;;;;;11.77;71.48;101685.53;5033645;27;100750;-31
2022/09/23 04:34:18;;;;;;;7.22;2.38;;;;;;;11.80;71.39;101682.66;5033765;27;96519;-30
2022/09/23 04:36:45;;;;;;;3.42;2.03;;;;;;;11.80;71.21;101688.09;5034093;27;96782;-31
2022/09/23 04:39:11;;;;;;;3.67;2.40;;;;;;;11.79;71.45;101682.75;5033684;27;100361;-31
2022/09/23 04:41:36;;;;;;;5.95;2.13;;;;;;;11.78;71.25;101684.59;5033279;27;100634;-32
2022/09/23 04:44:02;;;;;;;7.47;2.33;;;;;;;11.80;71.16;101673.66;5051651;27;96693;-31
2022/09/23 04:46:27;;;;;;;4.35;2.15;;;;;;;11.79;71.60;101680.91;5033667;27;97088;-31
2022/09/23 04:48:53;;;;;;;4.65;2.60;;;;;;;11.82;71.43;101685.28;5053131;27;99280;-31
2022/09/23 04:51:20;;;;;;;3.60;2.08;;;;;;;11.82;71.98;101686.19;5055350;27;97809;-30
2022/09/23 04:53:47;;;;;;;4.45;2.15;;;;;;;11.84;71.70;101686.09;5036949;27;96684;-32
2022/09/23 04:56:16;;;;;;;3.65;2.30;;;;;;;11.82;71.63;101678.03;5036843;27;97620;-30
2022/09/23 04:58:42;;;;;;;4.22;2.47;;;;;;;11.84;71.43;101686.09;5036792;27;100994;-31
2022/09/23 05:01:24;;;;;;;3.78;2.10;;;;;;;11.83;71.44;101679.78;5037120;27;100983;-31
2022/09/23 05:03:50;;;;;;;3.63;2.37;;;;;;;11.86;71.23;101685.03;5037173;27;96727;-30
2022/09/23 05:06:15;;;;;;;3.15;2.22;;;;;;;11.88;71.71;101688.59;5055303;27;96877;-30
2022/09/23 05:08:52;;;;;;;4.38;2.22;;;;;;;11.90;71.56;101685.81;5054471;27;97896;-31
2022/09/23 05:11:19;;;;;;;8.32;2.13;;;;;;;11.91;71.29;101684.81;5055329;27;97342;-30
2022/09/23 05:13:46;;;;;;;6.15;2.33;;;;;;;11.95;70.95;101694.56;5036718;27;96879;-31
2022/09/23 05:16:12;;;;;;;3.05;1.85;;;;;;;11.94;71.24;101689.22;5036587;27;98033;-31
2022/09/23 05:18:42;;;;;;;4.80;2.38;;;;;;;11.94;71.26;101694.66;5054864;27;99314;-32
2022/09/23 05:21:09;;;;;;;3.47;2.05;;;;;;;11.96;71.18;101684.59;5053936;27;99166;-31
2022/09/23 05:23:35;;;;;;;2.97;1.92;;;;;;;11.99;70.95;101687.13;5036685;27;96976;-30
2022/09/23 05:26:12;;;;;;;3.90;2.13;;;;;;;11.99;71.41;101696.16;5036859;27;96768;-30
2022/09/23 05:28:38;;;;;;;3.63;2.28;;;;;;;11.95;71.07;101693.69;5054710;27;97814;-30
2022/09/23 05:31:13;;;;;;;5.00;2.33;;;;;;;11.98;70.60;101701.69;5054830;27;97798;-33
2022/09/23 05:33:39;;;;;;;4.20;2.35;;;;;;;12.00;70.98;101689.78;5035691;27;97187;-31
2022/09/23 05:36:06;;;;;;;3.75;2.13;;;;;;;12.01;70.79;101694.25;5036351;27;97073;-31
2022/09/23 05:38:32;;;;;;;5.10;2.25;;;;;;;12.02;70.85;101696.00;5036156;27;100815;-31
2022/09/23 05:41:02;;;;;;;2.80;1.77;;;;;;;12.02;71.80;101701.44;5036183;27;101107;-31
2022/09/23 05:43:28;;;;;;;4.75;2.13;;;;;;;12.02;71.65;101700.56;5036467;27;96608;-30
2022/09/23 05:46:03;;;;;;;7.32;2.28;;;;;;;12.05;71.53;101694.94;5054480;27;96799;-30
2022/09/23 05:48:34;;;;;;;2.90;2.00;;;;;;;12.03;71.14;101696.88;5036068;27;102409;-30
2022/09/23 05:51:00;;;;;;;4.65;2.53;;;;;;;12.04;71.14;101695.94;5036336;27;101043;-30
2022/09/23 05:53:26;;;;;;;3.80;2.25;;;;;;;12.05;71.56;101698.53;5054323;27;96665;-30
2022/09/23 05:55:53;;;;;;;4.25;2.25;;;;;;;12.07;71.21;101701.19;5036344;27;96831;-31
2022/09/23 05:58:19;;;;;;;4.35;2.42;;;;;;;12.07;71.45;101703.91;5035513;27;101124;-30
2022/09/23 06:00:45;;;;;;;3.85;2.28;;;;;;;12.07;71.50;101703.91;5035668;27;101185;-30
2022/09/23 06:03:19;;;;;;;2.65;1.83;;;;;;;12.11;70.84;101706.38;5054484;27;96722;-31
2022/09/23 06:05:47;;;;;;;4.22;2.50;;;;;;;12.08;70.67;101700.22;5054421;27;96921;-30
2022/09/23 06:08:13;;;;;;;3.75;2.17;;;;;;;12.13;71.08;101702.69;5035697;27;101301;-31
2022/09/23 06:10:43;;;;;;;6.20;2.58;;;;;;;12.14;70.90;101699.00;5054231;27;97371;-31
2022/09/23 06:13:10;;;;;;;8.02;2.35;;;;;;;12.16;71.15;101697.97;5035522;27;96935;-31
2022/09/23 06:15:36;;;;;;;4.85;2.38;;;;;;;12.16;70.78;101706.13;5054537;27;96769;-30
2022/09/23 06:18:02;;;;;;;3.85;2.17;;;;;;;12.20;70.88;101706.81;5035570;27;101163;-31
2022/09/23 06:20:28;;;;;;;4.40;1.95;;;;;;;12.23;70.76;101703.94;5020584;28;101132;-31
2022/09/23 06:22:54;;;;;;;4.53;2.45;;;;;;;12.23;70.86;101707.53;5013089;28;96624;-31
2022/09/23 06:25:21;;;;;;;4.50;2.78;;;;;;;12.27;70.48;101700.94;5013374;28;96718;-30
2022/09/23 06:27:54;;;;;;;7.05;2.70;;;;;;;12.30;70.20;101692.66;5011618;28;101155;-30
2022/09/23 06:30:21;;;;;;;5.97;2.83;;;;;;;12.31;70.17;101702.53;5011727;28;100934;-32
2022/09/23 06:32:53;;;;;;;4.75;2.78;;;;;;;12.36;70.19;101694.16;5012123;28;96747;-30
2022/09/23 06:35:21;;;;;;;5.45;2.22;;;;;;;12.39;70.06;101682.22;5013468;28;96738;-30
2022/09/23 06:37:46;;;;;;;7.25;2.50;;;;;;;12.44;70.19;101691.00;5011874;28;101200;-31
2022/09/23 06:40:15;;;;;;;4.65;2.45;;;;;;;12.50;70.07;101690.66;5013333;28;97330;-30
2022/09/23 06:42:41;;;;;;;7.45;2.42;;;;;;;12.50;69.85;101671.63;5011978;28;96715;-31
2022/09/23 06:45:11;;;;;;;3.75;2.13;;;;;;;12.54;69.79;101684.97;5011711;28;96963;-32
2022/09/23 06:47:41;;;;;;;5.13;2.28;;;;;;;12.56;69.97;101686.72;5011319;28;100660;-30
2022/09/23 06:50:08;;;;;;;4.68;2.20;;;;;;;12.58;70.08;101682.06;5012949;28;97922;-31
2022/09/23 06:52:33;;;;;;;4.72;2.50;;;;;;;12.63;69.88;101686.31;5028469;28;97845;-31
2022/09/23 06:54:59;;;;;;;4.25;2.47;;;;;;;12.67;69.98;101682.41;5011582;28;96828;-31
2022/09/23 06:57:28;;;;;;;6.32;2.47;;;;;;;12.69;70.64;101680.50;5012696;28;99248;-30
2022/09/23 06:59:53;;;;;;;5.78;2.63;;;;;;;12.70;69.94;101678.66;5011459;28;101226;-30
2022/09/23 07:02:19;;;;;;;7.07;2.67;;;;;;;12.71;70.29;101678.56;5013049;28;96496;-31
2022/09/23 07:04:44;;;;;;;4.95;2.47;;;;;;;12.79;70.32;101682.69;5013338;28;96903;-31
2022/09/23 07:07:10;;;;;;;6.93;2.42;;;;;;;12.84;69.46;101686.03;5012554;28;99830;-31
2022/09/23 07:09:36;;;;;;;4.88;2.20;;;;;;;12.89;69.43;101686.63;5012601;28;98382;-31
2022/09/23 07:12:01;;;;;;;8.35;2.55;;;;;;;13.00;69.36;101688.75;5011572;27;96549;-31
2022/09/23 07:14:26;;;;;;;4.38;2.60;;;;;;;13.04;68.75;101688.47;5013044;28;96800;-31
2022/09/23 07:16:52;;;;;;;5.47;1.85;;;;;;;13.10;68.97;101688.09;5012472;28;99504;-32
2022/09/23 07:19:18;;;;;;;4.93;2.35;;;;;;;13.15;68.99;101688.69;5014269;27;99345;-30
2022/09/23 07:21:43;;;;;;;5.05;2.47;;;;;;;13.23;68.45;101690.09;5053251;27;96592;-30
2022/09/23 07:24:08;;;;;;;4.72;2.25;;;;;;;13.29;68.40;101687.91;5053040;27;96791;-32
2022/09/23 07:26:34;;;;;;;3.58;2.13;;;;;;;13.37;68.64;101687.44;5052942;27;98008;-31
2022/09/23 07:29:03;;;;;;;4.95;2.35;;;;;;;13.41;68.21;101678.13;5052777;27;98830;-31
2022/09/23 07:31:30;;;;;;;3.60;2.22;;;;;;;13.43;68.11;101673.50;5052909;27;96638;-32
2022/09/23 07:33:57;;;;;;;3.25;2.08;;;;;;;13.51;68.13;101673.03;5034472;27;96586;-31
2022/09/23 07:36:23;;;;;;;3.10;1.80;;;;;;;13.53;68.09;101676.53;5033724;27;100036;-30
2022/09/23 07:38:48;;;;;;;5.85;2.10;;;;;;;13.57;67.83;101673.53;5034282;27;101024;-30
2022/09/23 07:41:16;;;;;;;5.50;2.65;;;;;;;13.65;68.00;101675.78;5052455;27;96554;-33
2022/09/23 07:43:43;;;;;;;4.13;2.40;;;;;;;13.73;67.63;101675.28;5034483;27;96846;-31
2022/09/23 07:46:13;;;;;;;3.65;2.45;;;;;;;13.77;68.00;101672.28;5034136;27;100941;-31
2022/09/23 07:48:38;;;;;;;3.70;2.40;;;;;;;13.82;67.81;101672.00;5034189;27;100862;-31
2022/09/23 07:51:20;;;;;;;6.45;2.53;;;;;;;13.95;67.67;101677.59;5052472;27;96628;-31
2022/09/23 07:53:47;;;;;;;4.32;2.85;;;;;;;14.04;67.22;101674.28;5052919;27;96801;-31
2022/09/23 07:56:12;;;;;;;5.72;2.92;;;;;;;14.13;66.59;101681.00;5034024;27;101315;-32
2022/09/23 07:58:38;;;;;;;4.75;2.72;;;;;;;14.19;66.63;101678.75;5052566;27;97908;-30
2022/09/23 08:01:05;;;;;;;6.30;2.30;;;;;;;14.21;66.60;101684.13;5052138;27;96526;-30
2022/09/23 08:03:30;;;;;;;6.13;2.53;;;;;;;14.28;66.74;101685.47;5034001;27;97268;-33
2022/09/23 08:06:10;;;;;;;4.88;2.63;;;;;;;14.32;66.37;101692.47;5052432;27;101686;-29
2022/09/23 08:08:39;;;;;;;4.80;2.45;;;;;;;14.36;66.51;101683.13;5052474;27;97796;-31
2022/09/23 08:11:06;;;;;;;4.75;2.38;;;;;;;14.35;65.91;101689.56;5033992;27;96756;-30
2022/09/23 08:13:32;;;;;;;3.65;2.20;;;;;;;14.40;66.49;101692.00;5034018;27;96849;-31
2022/09/23 08:15:58;;;;;;;5.43;2.42;;;;;;;14.42;66.51;101690.94;5033720;27;100998;-30
2022/09/23 08:18:24;;;;;;;5.38;2.80;;;;;;;14.47;66.68;101687.91;5034244;27;100749;-31
2022/09/23 08:20:49;;;;;;;5.22;2.67;;;;;;;14.45;66.13;101687.13;5033492;27;96853;-33
2022/09/23 08:23:16;;;;;;;4.95;2.65;;;;;;;14.45;66.13;101685.25;5034397;27;96916;-30
2022/09/23 08:25:46;;;;;;;5.03;2.53;;;;;;;14.55;66.78;101695.63;5036776;27;100935;-30
2022/09/23 08:28:17;;;;;;;8.18;2.70;;;;;;;14.61;66.98;101696.09;5037361;27;102558;-30
2022/09/23 08:30:43;;;;;;;5.57;1.90;;;;;;;14.65;66.76;101680.41;5055627;27;96838;-30
2022/09/23 08:33:12;;;;;;;3.15;2.03;;;;;;;14.68;66.28;101672.00;5037516;27;96849;-31
2022/09/23 08:35:39;;;;;;;4.07;2.10;;;;;;;14.74;66.45;101684.38;5037179;27;101552;-31
2022/09/23 08:38:05;;;;;;;7.43;2.28;;;;;;;14.78;65.75;101686.81;5037176;27;101449;-30
2022/09/23 08:40:34;;;;;;;4.47;1.95;;;;;;;14.84;65.84;101690.97;5055509;27;96645;-31
2022/09/23 08:42:59;;;;;;;3.13;2.00;;;;;;;14.89;66.03;101687.94;5037539;27;96864;-30
2022/09/23 08:45:26;;;;;;;6.82;2.38;;;;;;;14.91;65.87;101681.41;5055337;27;98054;-32
2022/09/23 08:48:00;;;;;;;5.68;2.42;;;;;;;14.95;66.47;101684.81;5037024;27;100663;-30
2022/09/23 08:50:34;;;;;;;3.33;2.05;;;;;;;14.98;65.90;101681.88;5036572;27;97236;-30
2022/09/23 08:53:04;;;;;;;4.63;2.38;;;;;;;15.02;65.76;101694.34;5037110;27;97082;-31
2022/09/23 08:55:33;;;;;;;6.38;2.38;;;;;;;15.03;66.06;101696.94;5055133;27;99743;-31
2022/09/23 08:58:05;;;;;;;3.65;1.92;;;;;;;15.10;66.21;101689.25;5036893;27;100844;-30
2022/09/23 09:00:35;;;;;;;;;;;;;;;15.14;66.46;101685.34;5055578;27;98251;-32
2022/09/23 09:03:08;;;;;;;7.85;2.08;;;;;;;15.14;65.79;101690.78;5036986;27;96865;-31
2022/09/23 09:05:34;;;;;;;5.72;2.40;;;;;;;15.18;65.59;101686.88;5036849;27;101269;-30
2022/09/23 09:08:01;;;;;;;5.95;2.55;;;;;;;15.20;65.27;101684.03;5055224;27;97785;-30
2022/09/23 09:10:38;;;;;;;3.88;2.40;;;;;;;15.21;65.52;101689.41;5055092;27;96554;-31
2022/09/23 09:13:28;;;;;;;6.05;2.10;;;;;;;15.22;65.11;101695.72;5036446;27;96817;-33
2022/09/23 09:16:28;;;;;;;3.85;2.25;;;;;;;15.25;65.14;101693.69;5036150;27;100833;-31
2022/09/23 09:18:58;;;;;;;2.42;1.52;;;;;;;15.29;65.09;101688.88;5036541;27;100906;-30
2022/09/23 09:21:33;;;;;;;6.03;2.50;;;;;;;15.32;65.28;101696.84;5054458;27;96823;-30
2022/09/23 09:23:58;;;;;;;5.55;2.10;;;;;;;15.34;65.10;101688.56;5055151;27;96621;-31
2022/09/23 09:26:34;;;;;;;4.63;2.35;;;;;;;15.40;65.36;101688.16;5036336;27;101066;-32
2022/09/23 09:29:03;;;;;;;4.32;2.38;;;;;;;15.43;65.40;101691.53;5054021;27;99197;-32
2022/09/23 09:31:38;;;;;;;5.25;2.42;;;;;;;15.49;65.92;101691.13;5036566;27;96789;-31
2022/09/23 09:34:10;;;;;;;5.43;2.25;;;;;;;15.53;65.45;101689.03;5036396;27;96763;-30
2022/09/23 09:36:52;;;;;;;3.70;2.03;;;;;;;15.57;65.57;101682.41;5054410;27;99948;-30
2022/09/23 09:39:18;;;;;;;3.83;2.17;;;;;;;15.58;65.36;101675.06;5054649;27;97248;-30
2022/09/23 09:41:49;;;;;;;5.00;2.13;;;;;;;15.68;65.50;101678.91;5054133;27;96578;-31
2022/09/23 09:44:39;;;;;;;5.32;2.33;;;;;;;15.78;65.63;101680.06;5036174;27;96881;-31
2022/09/23 09:47:39;;;;;;;4.47;2.15;;;;;;;15.85;65.52;101678.66;5054422;27;99363;-31
2022/09/23 09:50:17;;;;;;;4.38;2.25;;;;;;;15.88;65.37;101683.00;5030896;27;100840;-30
2022/09/23 09:52:43;;;;;;;4.55;2.05;;;;;;;15.92;65.14;101676.31;5036301;27;96723;-30
2022/09/23 09:55:12;;;;;;;8.05;2.28;;;;;;;15.91;64.25;101675.47;5054826;27;96761;-30
2022/09/23 09:57:40;;;;;;;5.40;2.42;;;;;;;15.93;65.01;101665.31;5054428;27;97589;-30
2022/09/23 10:00:25;;;;;;;3.92;2.42;;;;;;;15.98;65.48;101664.97;5054487;27;97847;-30
2022/09/23 10:02:58;;;;;;;7.10;1.83;;;;;;;16.05;65.00;101665.41;5036003;27;96605;-31
2022/09/23 10:05:48;;;;;;;4.95;2.17;;;;;;;16.06;64.32;101665.28;5035882;27;96561;-31
2022/09/23 10:08:33;;;;;;;10.77;2.35;;;;;;;16.01;64.25;101667.47;5040863;27;98880;-30
2022/09/23 10:11:07;;;;;;;5.38;2.08;;;;;;;16.00;63.89;101663.00;5035741;27;100726;-30
2022/09/23 10:13:32;;;;;;;4.32;2.47;;;;;;;15.97;64.47;101659.59;5035646;27;96944;-32
2022/09/23 10:16:02;;;;;;;4.57;2.13;;;;;;;15.98;64.89;101653.19;5054317;27;96774;-32
2022/09/23 10:18:39;;;;;;;4.15;2.28;;;;;;;16.01;65.56;101664.75;5054131;27;97504;-32
2022/09/23 10:21:13;;;;;;;3.60;2.03;;;;;;;16.02;64.83;101660.19;5053493;27;97836;-29
2022/09/23 10:23:51;;;;;;;2.97;1.90;;;;;;;16.04;64.65;101650.00;5035754;27;96576;-31
2022/09/23 10:26:25;;;;;;;3.30;1.95;;;;;;;16.08;64.29;101660.59;5054556;27;97197;-30
2022/09/23 10:28:54;;;;;;;9.52;2.58;;;;;;;16.09;65.15;101651.44;5035341;27;101134;-29
2022/09/23 10:31:27;;;;;;;4.00;2.33;;;;;;;16.13;64.82;101660.25;5035403;27;101458;-30
2022/09/23 10:34:01;;;;;;;4.03;2.33;;;;;;;16.16;64.88;101654.59;5035006;27;96994;-30
2022/09/23 10:36:29;;;;;;;5.55;2.53;;;;;;;16.21;65.13;101657.88;5054015;27;96624;-30
2022/09/23 10:48:24;;;;;;;3.72;2.05;;;;;;;16.55;63.68;101661.72;5053415;27;96608;-30
2022/09/23 10:50:54;;;;;;;7.63;2.08;;;;;;;16.59;64.04;101659.66;5053660;27;97437;-32
2022/09/23 10:53:28;;;;;;;3.92;2.50;;;;;;;16.70;64.69;101656.09;5035501;27;100821;-31
2022/09/23 10:55:59;;;;;;;3.90;1.70;;;;;;;16.72;63.73;101659.59;5053455;27;96573;-31
2022/09/23 10:58:57;;;;;;;2.50;1.70;;;;;;;16.66;63.51;101650.00;5053473;27;96673;-30
2022/09/23 11:01:42;;;;;;;3.60;1.95;;;;;;;16.67;64.10;101653.59;5052651;27;99403;-32
2022/09/23 11:04:15;;;;;;;4.40;2.67;;;;;;;16.72;63.81;101643.19;5035077;27;100594;-32
2022/09/23 11:07:15;;;;;;;2.42;1.63;;;;;;;16.80;63.78;101650.84;5035059;27;96735;-31
2022/09/23 11:09:52;;;;;;;4.15;2.00;;;;;;;16.85;63.66;101648.63;4966172;27;96826;-31
2022/09/23 11:12:38;;;;;;;4.13;1.98;;;;;;;16.88;63.48;101643.81;5052897;27;98585;-30
2022/09/23 11:15:23;;;;;;;2.67;1.80;;;;;;;16.96;63.86;101645.97;5052898;27;99173;-30
2022/09/23 11:18:04;;;;;;;6.32;1.95;;;;;;;16.98;62.92;101649.47;5034890;27;96659;-30
2022/09/23 11:20:43;;;;;;;4.35;1.88;;;;;;;17.01;63.01;101653.84;5053130;27;96801;-30
2022/09/23 11:23:31;;;;;;;4.50;2.10;;;;;;;17.02;63.20;101642.78;5034711;27;101085;-30
2022/09/23 11:26:07;;;;;;;5.07;2.05;;;;;;;17.09;63.46;101638.59;5034611;27;101546;-31
2022/09/23 11:28:49;;;;;;;6.15;2.15;;;;;;;17.19;63.56;101631.41;5034295;27;97321;-30
2022/09/23 11:31:46;;;;;;;5.13;2.75;;;;;;;17.28;63.06;101629.84;5034484;27;97176;-30
2022/09/23 11:34:37;;;;;;;6.18;2.22;;;;;;;17.34;63.39;101623.84;5052679;27;97959;-30
2022/09/23 11:37:14;;;;;;;4.75;2.13;;;;;;;17.40;63.45;101620.66;5053007;27;97868;-31
2022/09/23 11:39:42;;;;;;;6.57;2.30;;;;;;;17.49;63.20;101626.41;5034502;27;96690;-32
2022/09/23 11:42:18;;;;;;;5.30;1.95;;;;;;;17.52;63.43;101631.63;5052796;27;96746;-31
2022/09/23 11:44:50;;;;;;;6.20;2.47;;;;;;;17.65;63.74;101624.19;5052892;27;97984;-30
2022/09/23 11:47:21;;;;;;;4.32;2.13;;;;;;;17.75;62.89;101611.50;5052870;27;99170;-31
2022/09/23 11:49:56;;;;;;;4.50;2.60;;;;;;;17.78;61.96;101621.34;5052695;27;96696;-32
2022/09/23 11:52:38;;;;;;;3.22;1.98;;;;;;;17.80;62.72;101617.56;5034421;27;96617;-31
2022/09/23 11:55:27;;;;;;;3.15;2.08;;;;;;;17.79;62.84;101606.66;5032150;27;100797;-31